createdAt,value
2023-01-19T00:02:19.040Z,93.91
2023-01-19T00:05:21.196Z,93.82
2023-01-19T00:08:23.095Z,93.75
2023-01-19T00:11:11.592Z,93.63
2023-01-19T00:14:20.085Z,93.78
2023-01-19T00:17:28.739Z,93.76
2023-01-19T00:20:37.049Z,93.88
2023-01-19T00:23:45.854Z,93.74
2023-01-19T00:26:55.320Z,93.80
2023-01-19T00:30:04.291Z,93.69
2023-01-19T00:33:13.283Z,93.88
2023-01-19T00:36:22.306Z,94.18
2023-01-19T00:39:13.948Z,94.00
2023-01-19T00:42:22.973Z,94.03
2023-01-19T00:45:32.876Z,94.13
2023-01-19T00:48:42.134Z,94.03
2023-01-19T00:51:33.500Z,93.97
2023-01-19T00:54:41.773Z,94.00
2023-01-19T00:57:50.925Z,94.29
2023-01-19T01:01:02.905Z,94.18
2023-01-19T01:04:12.509Z,94.12
2023-01-19T01:07:21.008Z,94.07
2023-01-19T01:10:36.052Z,94.12
2023-01-19T01:13:44.295Z,94.25
2023-01-19T01:16:53.843Z,94.14
2023-01-19T01:20:02.521Z,93.64
2023-01-19T01:23:11.332Z,93.75
2023-01-19T01:26:19.570Z,93.53
2023-01-19T01:29:17.869Z,93.48
2023-01-19T01:32:18.924Z,93.45
2023-01-19T01:35:28.338Z,93.65
2023-01-19T01:38:37.069Z,93.61
2023-01-19T01:41:38.517Z,93.54
2023-01-19T01:44:44.450Z,93.59
2023-01-19T01:48:03.101Z,93.33
2023-01-19T01:51:08.864Z,93.09
2023-01-19T01:54:27.429Z,92.79
2023-01-19T01:57:36.526Z,93.03
2023-01-19T02:00:33.728Z,93.04
2023-01-19T02:03:35.194Z,92.66
2023-01-19T02:06:43.842Z,92.73
2023-01-19T02:09:44.847Z,92.68
2023-01-19T02:12:52.272Z,92.67
2023-01-19T02:16:00.530Z,92.77
2023-01-19T02:19:03.620Z,92.89
2023-01-19T02:22:10.334Z,92.74
2023-01-19T02:25:19.178Z,92.87
2023-01-19T02:28:27.887Z,92.99
2023-01-19T02:31:36.300Z,93.12
2023-01-19T02:34:45.486Z,92.99
2023-01-19T02:37:54.703Z,93.04
2023-01-19T02:41:03.052Z,93.14
2023-01-19T02:44:10.245Z,93.37
2023-01-19T02:47:19.006Z,93.54
2023-01-19T02:50:49.450Z,93.46
2023-01-19T02:54:02.356Z,93.57
2023-01-19T02:57:08.852Z,93.56
2023-01-19T03:00:23.050Z,93.36
2023-01-19T03:03:24.761Z,93.05
2023-01-19T03:06:42.301Z,92.85
2023-01-19T03:10:09.182Z,93.03
2023-01-19T03:13:17.633Z,93.01
2023-01-19T03:16:25.775Z,93.13
2023-01-19T03:19:43.136Z,93.03
2023-01-19T03:22:51.434Z,93.17
2023-01-19T03:26:00.372Z,93.21
2023-01-19T03:29:09.385Z,92.95
2023-01-19T03:32:11.962Z,92.59
2023-01-19T03:35:20.811Z,92.77
2023-01-19T03:38:29.166Z,92.77
2023-01-19T03:41:41.172Z,92.85
2023-01-19T03:44:50.717Z,92.85
2023-01-19T03:47:52.182Z,92.67
2023-01-19T03:51:00.480Z,92.25
2023-01-19T03:54:09.532Z,92.31
2023-01-19T03:57:17.848Z,92.38
2023-01-19T04:00:26.516Z,92.28
2023-01-19T04:03:34.682Z,92.11
2023-01-19T04:06:29.315Z,92.27
2023-01-19T04:09:37.488Z,92.64
2023-01-19T04:12:36.356Z,92.34
2023-01-19T04:15:44.945Z,92.54
2023-01-19T04:18:54.503Z,92.28
2023-01-19T04:21:54.999Z,92.35
2023-01-19T04:24:49.234Z,92.10
2023-01-19T04:27:58.384Z,92.06
2023-01-19T04:31:07.298Z,92.20
2023-01-19T04:34:15.951Z,92.59
2023-01-19T04:37:24.733Z,92.55
2023-01-19T04:40:33.086Z,92.39
2023-01-19T04:43:41.243Z,92.06
2023-01-19T04:46:49.409Z,91.97
2023-01-19T04:49:45.324Z,92.21
2023-01-19T04:52:53.620Z,92.41
2023-01-19T04:56:02.498Z,92.53
2023-01-19T04:59:11.731Z,92.73
2023-01-19T05:02:20.461Z,92.78
2023-01-19T05:05:27.322Z,92.74
2023-01-19T05:08:36.370Z,92.42
2023-01-19T05:11:45.019Z,92.36
2023-01-19T05:14:53.580Z,92.49
2023-01-19T05:18:03.201Z,92.11
2023-01-19T05:21:10.206Z,92.26
2023-01-19T05:24:18.545Z,92.28
2023-01-19T05:27:17.139Z,92.02
2023-01-19T05:30:26.186Z,92.19
2023-01-19T05:33:35.197Z,92.31
2023-01-19T05:36:43.631Z,92.44
2023-01-19T05:39:53.265Z,92.55
2023-01-19T05:43:02.161Z,92.71
2023-01-19T05:46:11.078Z,92.62
2023-01-19T05:49:19.352Z,92.83
2023-01-19T05:52:30.299Z,92.91
2023-01-19T05:55:38.573Z,92.97
2023-01-19T05:58:47.950Z,92.90
2023-01-19T06:01:57.335Z,92.91
2023-01-19T06:04:55.984Z,92.85
2023-01-19T06:08:04.519Z,92.50
2023-01-19T06:11:13.918Z,92.46
2023-01-19T06:14:22.811Z,92.41
2023-01-19T06:17:31.484Z,92.35
2023-01-19T06:20:40.546Z,92.19
2023-01-19T06:23:49.858Z,92.31
2023-01-19T06:26:59.142Z,92.36
2023-01-19T06:29:58.578Z,92.51
2023-01-19T06:33:07.400Z,92.51
2023-01-19T06:36:16.316Z,92.53
2023-01-19T06:39:25.367Z,92.36
2023-01-19T06:42:33.537Z,92.28
2023-01-19T06:45:43.741Z,92.50
2023-01-19T06:48:35.858Z,92.72
2023-01-19T06:51:44.459Z,92.86
2023-01-19T06:54:54.067Z,92.65
2023-01-19T06:58:05.061Z,92.75
2023-01-19T07:01:14.175Z,92.60
2023-01-19T07:04:23.051Z,92.41
2023-01-19T07:07:32.210Z,92.55
2023-01-19T07:11:25.749Z,92.49
2023-01-19T07:14:08.779Z,92.34
2023-01-19T07:17:17.065Z,92.18
2023-01-19T07:20:26.036Z,92.21
2023-01-19T07:23:35.646Z,92.12
2023-01-19T07:26:43.818Z,92.18
2023-01-19T07:29:52.425Z,92.00
2023-01-19T07:33:01.224Z,91.57
2023-01-19T07:36:09.704Z,91.53
2023-01-19T07:39:21.882Z,91.46
2023-01-19T07:42:30.923Z,91.67
2023-01-19T07:45:39.549Z,91.96
2023-01-19T07:48:49.685Z,91.80
2023-01-19T07:51:59.059Z,92.02
2023-01-19T07:55:08.193Z,91.93
2023-01-19T07:58:16.874Z,92.10
2023-01-19T08:01:25.745Z,91.83
2023-01-19T08:04:34.630Z,92.04
2023-01-19T08:07:43.986Z,92.21
2023-01-19T08:10:53.616Z,92.27
2023-01-19T08:14:01.834Z,91.91
2023-01-19T08:17:09.991Z,91.86
2023-01-19T08:20:19.245Z,91.96
2023-01-19T08:23:27.378Z,91.90
2023-01-19T08:26:39.563Z,91.73
2023-01-19T08:29:48.466Z,91.77
2023-01-19T08:32:57.580Z,91.92
2023-01-19T08:35:59.668Z,91.62
2023-01-19T08:39:00.666Z,91.18
2023-01-19T08:42:09.814Z,91.29
2023-01-19T08:45:18.243Z,91.28
2023-01-19T08:48:27.252Z,91.38
2023-01-19T08:51:35.711Z,91.58
2023-01-19T08:54:44.743Z,91.24
2023-01-19T08:57:53.660Z,91.29
2023-01-19T09:00:59.773Z,90.84
2023-01-19T09:04:08.245Z,90.55
2023-01-19T09:07:17.397Z,90.56
2023-01-19T09:10:26.476Z,90.50
2023-01-19T09:13:35.487Z,89.80
2023-01-19T09:16:04.468Z,89.60
2023-01-19T09:18:56.313Z,89.52
2023-01-19T09:22:05.292Z,89.68
2023-01-19T09:24:56.882Z,89.81
2023-01-19T09:28:05.553Z,89.91
2023-01-19T09:31:15.042Z,89.85
2023-01-19T09:34:23.670Z,89.46
2023-01-19T09:37:32.981Z,89.79
2023-01-19T09:40:34.212Z,89.68
2023-01-19T09:43:22.631Z,89.83
2023-01-19T09:46:37.634Z,89.73
2023-01-19T09:49:54.883Z,89.98
2023-01-19T09:53:03.183Z,89.77
2023-01-19T09:55:58.027Z,90.00
2023-01-19T09:58:41.010Z,90.13
2023-01-19T10:01:53.451Z,90.32
2023-01-19T10:05:05.174Z,90.34
2023-01-19T10:08:35.738Z,90.60
2023-01-19T10:11:53.107Z,90.84
2023-01-19T10:15:06.209Z,90.90
2023-01-19T10:18:30.519Z,91.19
2023-01-19T10:21:42.560Z,91.36
2023-01-19T10:24:58.196Z,91.40
2023-01-19T10:28:00.680Z,91.51
2023-01-19T10:30:53.144Z,91.57
2023-01-19T10:34:01.667Z,91.54
2023-01-19T10:37:14.840Z,91.65
2023-01-19T10:40:31.935Z,91.76
2023-01-19T10:43:56.644Z,91.74
2023-01-19T10:47:25.669Z,91.83
2023-01-19T10:50:18.682Z,91.69
2023-01-19T10:53:27.327Z,91.91
2023-01-19T10:56:54.730Z,91.93
2023-01-19T11:00:04.749Z,91.92
2023-01-19T11:03:13.959Z,92.00
2023-01-19T11:06:35.365Z,91.87
2023-01-19T11:09:50.463Z,91.74
2023-01-19T11:12:57.598Z,91.71
2023-01-19T11:16:13.242Z,91.73
2023-01-19T11:19:21.519Z,91.69
2023-01-19T11:22:36.091Z,91.80
2023-01-19T11:25:45.837Z,91.59
2023-01-19T11:28:58.743Z,91.79
2023-01-19T11:32:08.046Z,91.47
2023-01-19T11:35:16.238Z,91.43
2023-01-19T11:38:25.745Z,91.41
2023-01-19T11:41:46.655Z,91.46
2023-01-19T11:45:07.383Z,91.54
2023-01-19T11:48:24.868Z,91.54
2023-01-19T11:51:35.948Z,91.61
2023-01-19T11:54:42.367Z,91.60
2023-01-19T11:57:31.586Z,91.69
2023-01-19T12:00:43.098Z,91.95
2023-01-19T12:03:57.731Z,91.93
2023-01-19T12:07:07.824Z,92.02
2023-01-19T12:10:17.474Z,92.34
2023-01-19T12:13:25.373Z,92.30
2023-01-19T12:16:39.957Z,92.26
2023-01-19T12:19:54.587Z,92.25
2023-01-19T12:23:04.252Z,92.35
2023-01-19T12:26:01.772Z,92.44
2023-01-19T12:28:57.554Z,92.56
2023-01-19T12:32:05.738Z,92.38
2023-01-19T12:35:20.433Z,92.45
2023-01-19T12:38:27.906Z,92.56
2023-01-19T12:41:55.910Z,92.63
2023-01-19T12:44:58.752Z,92.65
2023-01-19T12:47:56.483Z,92.69
2023-01-19T12:50:56.938Z,92.76
2023-01-19T12:54:06.021Z,92.82
2023-01-19T12:57:15.098Z,92.90
2023-01-19T13:00:42.285Z,93.08
2023-01-19T13:04:02.560Z,93.08
2023-01-19T13:07:29.201Z,93.04
2023-01-19T13:10:36.600Z,93.12
2023-01-19T13:13:57.245Z,93.22
2023-01-19T13:17:02.251Z,93.12
2023-01-19T13:20:25.699Z,93.32
2023-01-19T13:23:40.387Z,93.32
2023-01-19T13:26:53.008Z,93.27
2023-01-19T13:30:12.393Z,93.23
2023-01-19T13:33:22.384Z,93.32
2023-01-19T13:36:41.180Z,93.32
2023-01-19T13:39:56.488Z,93.34
2023-01-19T13:43:04.969Z,93.43
2023-01-19T13:46:16.806Z,93.46
2023-01-19T13:49:47.087Z,93.86
2023-01-19T13:52:56.161Z,93.60
2023-01-19T13:56:08.269Z,93.51
2023-01-19T13:59:19.710Z,93.65
2023-01-19T14:02:28.401Z,93.68
2023-01-19T14:05:37.427Z,93.45
2023-01-19T14:08:48.802Z,93.61
2023-01-19T14:11:42.816Z,93.54
2023-01-19T14:15:04.372Z,93.55
2023-01-19T14:18:10.581Z,93.66
2023-01-19T14:21:26.057Z,93.82
2023-01-19T14:24:41.789Z,93.87
2023-01-19T14:27:51.023Z,94.05
2023-01-19T14:30:44.133Z,94.15
2023-01-19T14:33:56.388Z,94.03
2023-01-19T14:37:14.541Z,93.96
2023-01-19T14:40:28.913Z,94.11
2023-01-19T14:43:30.579Z,94.15
2023-01-19T14:46:39.720Z,93.94
2023-01-19T14:49:49.839Z,94.25
2023-01-19T14:53:10.967Z,94.10
2023-01-19T14:56:19.673Z,94.42
2023-01-19T14:59:12.264Z,94.20
2023-01-19T15:02:20.539Z,94.17
2023-01-19T15:05:29.644Z,94.40
2023-01-19T15:08:38.312Z,94.39
2023-01-19T15:11:12.862Z,94.49
2023-01-19T15:14:02.879Z,94.47
2023-01-19T15:16:52.978Z,94.44
2023-01-19T15:20:01.960Z,94.47
2023-01-19T15:23:10.432Z,94.33
2023-01-19T15:26:18.681Z,94.49
2023-01-19T15:29:39.089Z,94.56
2023-01-19T15:32:50.692Z,94.57
2023-01-19T15:35:59.386Z,94.47
2023-01-19T15:38:49.875Z,94.48
2023-01-19T15:42:04.326Z,94.53
2023-01-19T15:45:14.118Z,94.54
2023-01-19T15:48:22.294Z,94.44
2023-01-19T15:51:34.121Z,94.36
2023-01-19T15:54:42.423Z,94.48
2023-01-19T15:57:44.258Z,94.39
2023-01-19T16:00:52.594Z,94.40
2023-01-19T16:03:59.655Z,94.47
2023-01-19T16:07:07.949Z,94.44
2023-01-19T16:10:14.162Z,94.50
2023-01-19T16:13:23.009Z,94.40
2023-01-19T16:16:12.900Z,94.48
2023-01-19T16:19:22.205Z,94.44
2023-01-19T16:22:31.043Z,94.50
2023-01-19T16:25:40.816Z,94.48
2023-01-19T16:28:49.840Z,94.47
2023-01-19T16:32:00.584Z,94.55
2023-01-19T16:35:09.428Z,94.44
2023-01-19T16:38:18.326Z,94.58
2023-01-19T16:41:26.575Z,94.50
2023-01-19T16:44:36.386Z,94.39
2023-01-19T16:47:45.936Z,94.56
2023-01-19T16:50:54.160Z,94.55
2023-01-19T16:53:55.796Z,94.45
2023-01-19T16:57:04.703Z,94.66
2023-01-19T16:59:53.020Z,94.52
2023-01-19T17:03:02.503Z,94.58
2023-01-19T17:06:10.743Z,94.58
2023-01-19T17:09:19.406Z,94.56
2023-01-19T17:12:15.125Z,94.50
2023-01-19T17:15:03.793Z,94.68
2023-01-19T17:17:55.343Z,94.63
2023-01-19T17:21:03.726Z,94.61
2023-01-19T17:24:13.203Z,94.67
2023-01-19T17:27:22.779Z,94.60
2023-01-19T17:30:31.872Z,94.55
2023-01-19T17:33:41.603Z,94.57
2023-01-19T17:36:52.101Z,94.55
2023-01-19T17:40:00.754Z,94.59
2023-01-19T17:43:09.788Z,94.49
2023-01-19T17:46:18.805Z,94.51
2023-01-19T17:49:27.090Z,94.42
2023-01-19T17:52:20.154Z,94.55
2023-01-19T17:55:28.891Z,94.51
2023-01-19T17:58:29.447Z,94.61
2023-01-19T18:01:34.092Z,94.55
2023-01-19T18:04:37.000Z,94.54
2023-01-19T18:07:25.095Z,94.51
2023-01-19T18:10:35.760Z,94.76
2023-01-19T18:13:45.111Z,94.70
2023-01-19T18:16:47.216Z,94.65
2023-01-19T18:19:56.800Z,94.68
2023-01-19T18:23:05.114Z,94.62
2023-01-19T18:26:19.910Z,94.74
2023-01-19T18:29:09.023Z,94.76
2023-01-19T18:32:18.058Z,94.67
2023-01-19T18:35:27.412Z,94.84
2023-01-19T18:38:35.550Z,94.84
2023-01-19T18:41:44.192Z,94.90
2023-01-19T18:44:53.879Z,94.94
2023-01-19T18:47:55.652Z,94.92
2023-01-19T18:51:03.958Z,95.06
2023-01-19T18:54:06.995Z,95.02
2023-01-19T18:57:08.858Z,95.01
2023-01-19T19:00:17.597Z,95.06
2023-01-19T19:03:26.968Z,95.04
2023-01-19T19:06:29.981Z,95.08
2023-01-19T19:09:38.149Z,94.97
2023-01-19T19:12:47.031Z,95.22
2023-01-19T19:15:58.455Z,95.20
2023-01-19T19:19:07.573Z,95.25
2023-01-19T19:22:17.145Z,95.63
2023-01-19T19:25:26.022Z,95.65
2023-01-19T19:28:04.083Z,95.70
2023-01-19T19:31:12.698Z,95.57
2023-01-19T19:34:21.885Z,95.62
2023-01-19T19:37:30.928Z,95.45
2023-01-19T19:40:40.514Z,95.75
2023-01-19T19:43:48.733Z,95.68
2023-01-19T19:46:58.066Z,95.95
2023-01-19T19:50:06.540Z,95.83
2023-01-19T19:53:15.052Z,95.89
2023-01-19T19:56:23.722Z,95.85
2023-01-19T19:59:33.253Z,95.71
2023-01-19T20:02:41.819Z,95.87
2023-01-19T20:05:50.997Z,95.78
2023-01-19T20:09:00.078Z,95.79
2023-01-19T20:12:11.285Z,95.87
2023-01-19T20:15:20.562Z,95.89
2023-01-19T20:18:29.888Z,95.86
2023-01-19T20:21:44.484Z,95.76
2023-01-19T20:24:56.802Z,95.78
2023-01-19T20:28:06.494Z,95.78
2023-01-19T20:31:15.694Z,95.67
2023-01-19T20:34:15.044Z,95.58
2023-01-19T20:37:24.427Z,95.65
2023-01-19T20:40:33.281Z,95.78
2023-01-19T20:43:21.849Z,95.79
2023-01-19T20:46:30.137Z,95.83
2023-01-19T20:49:30.203Z,95.73
2023-01-19T20:52:39.567Z,95.73
2023-01-19T20:55:48.991Z,95.69
2023-01-19T20:58:46.231Z,95.64
2023-01-19T21:01:38.980Z,95.64
2023-01-19T21:04:32.954Z,95.62
2023-01-19T21:07:41.675Z,95.70
2023-01-19T21:10:50.594Z,95.77
2023-01-19T21:13:59.026Z,95.76
2023-01-19T21:17:07.587Z,95.58
2023-01-19T21:20:16.584Z,95.69
2023-01-19T21:23:25.582Z,95.61
2023-01-19T21:26:33.960Z,95.47
2023-01-19T21:29:43.912Z,95.57
2023-01-19T21:32:53.279Z,95.52
2023-01-19T21:36:01.757Z,95.53
2023-01-19T21:39:10.300Z,95.45
2023-01-19T21:42:19.640Z,95.46
2023-01-19T21:45:28.183Z,95.61
2023-01-19T21:48:37.485Z,95.54
2023-01-19T21:51:39.146Z,95.59
2023-01-19T21:54:48.559Z,95.47
2023-01-19T21:57:57.489Z,95.51
2023-01-19T22:01:07.549Z,95.55
2023-01-19T22:04:15.892Z,95.61
2023-01-19T22:07:25.532Z,95.50
2023-01-19T22:10:34.696Z,95.50
2023-01-19T22:13:36.560Z,95.54
2023-01-19T22:16:46.061Z,95.57
2023-01-19T22:19:43.933Z,95.50
2023-01-19T22:22:50.693Z,95.61
2023-01-19T22:25:32.455Z,95.58
2023-01-19T22:28:40.641Z,95.51
2023-01-19T22:31:53.019Z,95.58
2023-01-19T22:34:48.446Z,95.41
2023-01-19T22:37:57.511Z,95.49
2023-01-19T22:41:06.649Z,95.56
2023-01-19T22:44:15.129Z,95.35
2023-01-19T22:47:05.959Z,95.49
2023-01-19T22:50:15.154Z,95.50
2023-01-19T22:53:23.745Z,95.51
2023-01-19T22:56:38.520Z,95.46
2023-01-19T22:59:47.276Z,95.43
2023-01-19T23:02:56.571Z,95.39
2023-01-19T23:05:56.451Z,95.47
2023-01-19T23:08:57.368Z,95.49
2023-01-19T23:12:08.738Z,95.38
2023-01-19T23:15:10.267Z,95.59
2023-01-19T23:18:19.991Z,95.46
2023-01-19T23:21:28.405Z,95.30
2023-01-19T23:24:30.781Z,94.92
2023-01-19T23:27:38.941Z,94.70
2023-01-19T23:30:29.519Z,94.58
2023-01-19T23:33:29.956Z,94.56
2023-01-19T23:36:39.398Z,94.65
2023-01-19T23:39:46.856Z,94.64
2023-01-19T23:42:56.044Z,94.73
2023-01-19T23:46:05.583Z,94.68
2023-01-19T23:49:03.816Z,94.68
2023-01-19T23:52:11.997Z,94.62
2023-01-19T23:55:20.250Z,94.76
2023-01-19T23:58:28.726Z,94.67
